Lugano, Switzerland

2:23 PM CET on October 30, 2014 (GMT +0100)
Parco Ciani | Change Station
CLOSE
Current Station
Personal Weather Station
Location: Lugano, TICINO
Elevation: 935 ft
Nearby Weather Stations

Elev 935 ft 46.01 °N, 8.96 °E | Updated 1 second ago

Clear
Clear
59.2 °F
Feels Like 59.2 °F
N
0.0
Wind Variable Wind from North
Gusts 0.0 mph

Today
High -- | Low -- °F
--% Chance of Precip.
Yesterday
High -- | Low -- °F
Precip. -- in
7:01 AM 5:13 PM
Waxing Crescent, 44% visible
Pressure 30.21 in
Visibility 4.3 miles
Clouds
Dew Point 50 °F
Humidity 70%
Rainfall 0.00 in
Snow Depth Not available.
UV 0.6 out of 12
Pollen Not available.
Air Quality Not available.
Flu Activity Not available.
METAR LSZA 301320Z 19004KT 7000 NSC 16/07 Q1023 NOSIG

More Conditions Fewer Conditions

Pressure 30.21 in
Visibility 4.3 miles
Clouds
Dew Point 50 °F
Humidity 70%
Rainfall 0.00 in
Snow Depth Not available.
UV 0.6 out of 12
Pollen Not available.
Air Quality Not available.
Flu Activity Not available.
METAR LSZA 301320Z 19004KT 7000 NSC 16/07 Q1023 NOSIG

More Conditions Fewer Conditions

10-Day Weather Forecast

Almanac

Astronomy

Oct. 30, 2014 Rise Set
Actual Time
Civil Twilight
Nautical Twilight
Astronomical Twilight
Moon
Length of Visible Light
Length of Day
Tomorrow will be .
, % of the Moon is Illuminated

Today's Extremes

Country Highs Country Lows

Community

WunderPhotos

Upload Photos

1,766,358 photos uploaded!

WunderBlogs® & News

Nearby

Air Quality

  Air Quality AQ Index Pollutant
Not available.

Snow Depth

Station Depth Elevation

Earthquake Activity

City Distance Mag. Time & Date
Minimum magnitude displayed is 2.5.

Coastal Water Temperatures

Place Temperature

Nearby Weather Stations